createdAt,value
2023-02-11T00:00:20.052Z,-3.62
2023-02-11T00:02:48.018Z,-3.56
2023-02-11T00:05:15.156Z,-3.55
2023-02-11T00:07:41.593Z,-3.58
2023-02-11T00:10:08.769Z,-3.61
2023-02-11T00:12:36.374Z,-3.55
2023-02-11T00:15:03.620Z,-3.70
2023-02-11T00:17:30.042Z,-3.94
2023-02-11T00:19:56.520Z,-3.66
2023-02-11T00:22:23.018Z,-4.05
2023-02-11T00:24:49.457Z,-3.66
2023-02-11T00:27:15.863Z,-3.67
2023-02-11T00:29:42.332Z,-3.67
2023-02-11T00:32:10.335Z,-3.58
2023-02-11T00:34:38.088Z,-3.72
2023-02-11T00:37:05.271Z,-3.76
2023-02-11T00:39:32.131Z,-3.57
2023-02-11T00:41:58.613Z,-3.67
2023-02-11T00:44:26.010Z,-3.72
2023-02-11T00:46:52.420Z,-3.83
2023-02-11T00:49:18.945Z,-3.73
2023-02-11T00:51:45.368Z,-3.82
2023-02-11T00:54:12.293Z,-3.66
2023-02-11T00:56:39.029Z,-3.65
2023-02-11T00:59:05.527Z,-3.47
2023-02-11T01:01:32.043Z,-3.59
2023-02-11T01:03:58.518Z,-3.83
2023-02-11T01:06:24.982Z,-4.00
2023-02-11T01:08:51.558Z,-3.67
2023-02-11T01:11:20.118Z,-3.72
2023-02-11T01:13:48.153Z,-3.73
2023-02-11T01:16:15.643Z,-3.79
2023-02-11T01:18:44.199Z,-3.79
2023-02-11T01:21:11.370Z,-3.91
2023-02-11T01:23:37.846Z,-3.91
2023-02-11T01:26:04.568Z,-3.79
2023-02-11T01:28:31.734Z,-3.91
2023-02-11T01:31:03.145Z,-4.00
2023-02-11T01:33:29.808Z,-3.94
2023-02-11T01:36:00.439Z,-4.00
2023-02-11T01:38:28.330Z,-4.26
2023-02-11T01:41:00.580Z,-3.95
2023-02-11T01:43:34.212Z,-4.09
2023-02-11T01:46:12.902Z,-4.11
2023-02-11T01:48:43.537Z,-3.94
2023-02-11T01:51:18.425Z,-3.94
2023-02-11T01:54:06.155Z,-3.91
2023-02-11T01:56:56.103Z,-3.97
2023-02-11T01:59:26.943Z,-4.00
2023-02-11T02:01:59.092Z,-4.02
2023-02-11T02:04:31.775Z,-4.11
2023-02-11T02:07:05.731Z,-3.92
2023-02-11T02:09:40.085Z,-4.15
2023-02-11T02:12:06.698Z,-4.06
2023-02-11T02:14:33.555Z,-4.11
2023-02-11T02:17:00.063Z,-4.09
2023-02-11T02:19:50.704Z,-4.05
2023-02-11T02:22:36.032Z,-4.08
2023-02-11T02:25:13.589Z,-4.23
2023-02-11T02:27:53.937Z,-4.24
2023-02-11T02:30:27.439Z,-4.22
2023-02-11T02:33:22.399Z,-4.12
2023-02-11T02:35:52.298Z,-4.05
2023-02-11T02:38:25.206Z,-4.22
2023-02-11T02:41:03.859Z,-4.15
2023-02-11T02:43:31.211Z,-4.28
2023-02-11T02:46:11.293Z,-4.30
2023-02-11T02:48:37.782Z,-4.19
2023-02-11T02:51:23.014Z,-4.18
2023-02-11T02:53:55.453Z,-4.21
2023-02-11T02:56:28.426Z,-4.20
2023-02-11T02:59:12.998Z,-4.23
2023-02-11T03:01:56.149Z,-4.29
2023-02-11T03:04:30.998Z,-4.27
2023-02-11T03:07:00.353Z,-4.19
2023-02-11T03:09:37.788Z,-4.32
2023-02-11T03:12:06.915Z,-4.06
2023-02-11T03:14:35.820Z,-3.87
2023-02-11T03:17:06.013Z,-3.47
2023-02-11T03:19:41.083Z,-3.41
2023-02-11T03:22:17.220Z,-3.51
2023-02-11T03:24:44.904Z,-3.51
2023-02-11T03:27:43.702Z,-3.46
2023-02-11T03:30:18.985Z,-3.45
2023-02-11T03:32:57.326Z,-3.52
2023-02-11T03:35:43.962Z,-3.83
2023-02-11T03:38:33.739Z,-3.92
2023-02-11T03:41:03.138Z,-3.67
2023-02-11T03:43:44.057Z,-3.55
2023-02-11T03:46:12.386Z,-3.73
2023-02-11T03:48:46.937Z,-3.59
2023-02-11T03:51:14.958Z,-3.77
2023-02-11T03:53:44.846Z,-3.81
2023-02-11T03:56:17.863Z,-3.85
2023-02-11T03:58:45.827Z,-3.80
2023-02-11T04:01:12.565Z,-3.92
2023-02-11T04:03:39.068Z,-3.89
2023-02-11T04:06:05.927Z,-4.06
2023-02-11T04:08:32.877Z,-4.02
2023-02-11T04:10:59.312Z,-3.92
2023-02-11T04:13:26.113Z,-3.86
2023-02-11T04:15:52.878Z,-4.03
2023-02-11T04:18:19.560Z,-4.23
2023-02-11T04:20:45.958Z,-4.20
2023-02-11T04:23:12.469Z,-4.19
2023-02-11T04:25:38.923Z,-4.41
2023-02-11T04:28:05.490Z,-4.31
2023-02-11T04:30:31.932Z,-4.14
2023-02-11T04:32:59.024Z,-3.86
2023-02-11T04:35:25.474Z,-4.19
2023-02-11T04:37:51.944Z,-4.31
2023-02-11T04:40:18.553Z,-4.43
2023-02-11T04:42:45.008Z,-4.54
2023-02-11T04:45:11.428Z,-4.33
2023-02-11T04:47:38.034Z,-3.83
2023-02-11T04:50:05.151Z,-3.90
2023-02-11T04:52:31.575Z,-4.20
2023-02-11T04:54:57.982Z,-4.15
2023-02-11T04:57:24.523Z,-4.21
2023-02-11T04:59:50.932Z,-4.16
2023-02-11T05:02:17.456Z,-4.25
2023-02-11T05:04:43.856Z,-4.21
2023-02-11T05:07:10.271Z,-4.29
2023-02-11T05:09:36.845Z,-3.98
2023-02-11T05:12:03.431Z,-4.13
2023-02-11T05:14:29.858Z,-3.89
2023-02-11T05:16:56.363Z,-3.95
2023-02-11T05:19:22.819Z,-4.02
2023-02-11T05:22:01.686Z,-4.15
2023-02-11T05:24:28.396Z,-4.14
2023-02-11T05:26:54.792Z,-3.95
2023-02-11T05:29:21.202Z,-3.86
2023-02-11T05:31:47.623Z,-3.91
2023-02-11T05:34:14.111Z,-3.85
2023-02-11T05:36:40.951Z,-3.78
2023-02-11T05:39:07.383Z,-3.69
2023-02-11T05:41:33.795Z,-3.76
2023-02-11T05:44:00.207Z,-3.60
2023-02-11T05:46:26.815Z,-3.57
2023-02-11T05:48:53.314Z,-3.44
2023-02-11T05:51:19.748Z,-3.45
2023-02-11T05:53:46.176Z,-3.45
2023-02-11T05:56:14.477Z,-3.36
2023-02-11T05:58:41.080Z,-3.47
2023-02-11T06:01:07.498Z,-3.36
2023-02-11T06:03:34.040Z,-3.23
2023-02-11T06:06:00.626Z,-3.23
2023-02-11T06:08:27.185Z,-3.27
2023-02-11T06:10:53.599Z,-3.39
2023-02-11T06:13:20.075Z,-3.42
2023-02-11T06:15:56.380Z,-3.01
2023-02-11T06:18:22.890Z,-3.17
2023-02-11T06:20:49.315Z,-3.16
2023-02-11T06:23:15.771Z,-3.21
2023-02-11T06:25:42.179Z,-3.36
2023-02-11T06:28:10.347Z,-3.20
2023-02-11T06:30:38.063Z,-3.17
2023-02-11T06:33:04.992Z,-2.99
2023-02-11T06:35:33.362Z,-2.92
2023-02-11T06:37:59.790Z,-2.99
2023-02-11T06:40:26.250Z,-2.91
2023-02-11T06:42:53.026Z,-2.92
2023-02-11T06:45:20.542Z,-2.88
2023-02-11T06:47:47.050Z,-2.79
2023-02-11T06:50:14.566Z,-2.69
2023-02-11T06:52:41.107Z,-3.00
2023-02-11T06:55:07.732Z,-2.62
2023-02-11T06:57:34.168Z,-2.73
2023-02-11T07:00:00.694Z,-2.96
2023-02-11T07:02:27.134Z,-2.92
2023-02-11T07:04:53.713Z,-2.74
2023-02-11T07:07:20.156Z,-2.89
2023-02-11T07:09:46.577Z,-2.62
2023-02-11T07:12:15.940Z,-2.47
2023-02-11T07:14:42.774Z,-2.59
2023-02-11T07:17:09.348Z,-2.78
2023-02-11T07:19:35.810Z,-2.56
2023-02-11T07:22:02.216Z,-2.50
2023-02-11T07:24:28.990Z,-2.50
2023-02-11T07:26:55.480Z,-2.34
2023-02-11T07:29:21.932Z,-1.99
2023-02-11T07:31:48.975Z,-2.24
2023-02-11T07:34:15.538Z,-2.13
2023-02-11T07:36:44.006Z,-2.54
2023-02-11T07:39:10.812Z,-2.04
2023-02-11T07:41:38.374Z,-2.13
2023-02-11T07:44:05.626Z,-2.37
2023-02-11T07:46:32.389Z,-1.99
2023-02-11T07:48:58.876Z,-2.09
2023-02-11T07:51:29.113Z,-1.89
2023-02-11T07:53:58.750Z,-1.90
2023-02-11T07:56:25.632Z,-1.82
2023-02-11T07:58:52.163Z,-1.75
2023-02-11T08:01:25.371Z,-1.39
2023-02-11T08:03:52.096Z,-1.16
2023-02-11T08:06:20.443Z,-1.08
2023-02-11T08:08:47.647Z,-1.11
2023-02-11T08:11:23.466Z,-1.31
2023-02-11T08:13:51.260Z,-1.08
2023-02-11T08:16:29.831Z,-1.04
2023-02-11T08:18:58.687Z,-1.05
2023-02-11T08:21:25.947Z,-0.77
2023-02-11T08:23:53.192Z,-0.50
2023-02-11T08:26:22.191Z,-0.68
2023-02-11T08:28:50.287Z,-0.42
2023-02-11T08:31:22.693Z,-0.79
2023-02-11T08:33:49.311Z,-0.41
2023-02-11T08:36:19.114Z,-0.51
2023-02-11T08:38:45.659Z,-0.37
2023-02-11T08:41:14.901Z,-0.38
2023-02-11T08:43:42.776Z,-0.39
2023-02-11T08:46:13.289Z,-0.44
2023-02-11T08:48:40.007Z,-0.11
2023-02-11T08:51:13.443Z,0.07
2023-02-11T08:53:40.188Z,0.01
2023-02-11T08:56:06.833Z,0.01
2023-02-11T08:58:33.593Z,0.13
2023-02-11T09:01:00.225Z,0.03
2023-02-11T09:03:26.865Z,-0.06
2023-02-11T09:05:53.419Z,0.24
2023-02-11T09:08:20.894Z,0.29
2023-02-11T09:10:47.678Z,0.31
2023-02-11T09:13:16.316Z,0.34
2023-02-11T09:15:46.750Z,0.36
2023-02-11T09:18:13.404Z,0.57
2023-02-11T09:20:39.931Z,0.62
2023-02-11T09:23:06.349Z,0.53
2023-02-11T09:25:32.819Z,0.54
2023-02-11T09:27:59.236Z,0.55
2023-02-11T09:30:25.754Z,0.72
2023-02-11T09:32:52.189Z,0.78
2023-02-11T09:35:18.654Z,0.93
2023-02-11T09:37:45.086Z,1.03
2023-02-11T09:40:12.955Z,1.03
2023-02-11T09:42:52.979Z,0.95
2023-02-11T09:45:23.726Z,1.05
2023-02-11T09:47:55.479Z,1.19
2023-02-11T09:50:38.936Z,1.57
2023-02-11T09:53:27.547Z,2.29
2023-02-11T09:55:56.422Z,2.51
2023-02-11T09:58:33.287Z,2.69
2023-02-11T10:01:27.744Z,2.77
2023-02-11T10:04:38.747Z,2.83
2023-02-11T10:07:43.060Z,2.93
2023-02-11T10:10:43.986Z,2.81
2023-02-11T10:13:23.047Z,2.89
2023-02-11T10:16:16.458Z,2.79
2023-02-11T10:19:05.229Z,2.66
2023-02-11T10:21:46.665Z,2.62
2023-02-11T10:24:15.673Z,2.57
2023-02-11T10:26:43.941Z,2.51
2023-02-11T10:29:50.462Z,2.77
2023-02-11T10:32:55.300Z,2.63
2023-02-11T10:35:23.454Z,2.90
2023-02-11T10:37:50.748Z,2.83
2023-02-11T10:40:21.299Z,2.90
2023-02-11T10:42:54.276Z,3.12
2023-02-11T10:45:27.504Z,3.18
2023-02-11T10:47:55.265Z,3.24
2023-02-11T10:50:33.340Z,3.20
2023-02-11T10:53:11.461Z,3.44
2023-02-11T10:55:37.996Z,3.68
2023-02-11T10:58:05.667Z,3.55
2023-02-11T11:00:42.919Z,3.84
2023-02-11T11:03:20.959Z,3.82
2023-02-11T11:05:57.232Z,4.06
2023-02-11T11:08:46.180Z,3.86
2023-02-11T11:11:24.068Z,3.86
2023-02-11T11:13:53.515Z,3.69
2023-02-11T11:16:26.187Z,3.86
2023-02-11T11:19:15.864Z,3.64
2023-02-11T11:21:50.426Z,3.69
2023-02-11T11:24:33.469Z,3.62
2023-02-11T11:27:03.092Z,3.54
2023-02-11T11:29:39.398Z,3.83
2023-02-11T11:32:20.874Z,3.79
2023-02-11T11:34:55.580Z,3.74
2023-02-11T11:37:33.037Z,3.86
2023-02-11T11:40:11.031Z,4.15
2023-02-11T11:42:39.788Z,3.98
2023-02-11T11:45:27.012Z,3.82
2023-02-11T11:48:15.276Z,3.97
2023-02-11T11:50:50.112Z,4.27
2023-02-11T11:53:31.246Z,4.42
2023-02-11T11:56:18.503Z,4.42
2023-02-11T11:58:45.099Z,4.36
2023-02-11T12:01:47.837Z,4.30
2023-02-11T12:04:49.820Z,4.25
2023-02-11T12:07:45.695Z,4.26
2023-02-11T12:10:18.384Z,4.32
2023-02-11T12:12:54.023Z,4.26
2023-02-11T12:15:31.204Z,4.16
2023-02-11T12:18:15.580Z,4.10
2023-02-11T12:21:00.399Z,4.21
2023-02-11T12:23:54.544Z,4.30
2023-02-11T12:26:24.286Z,4.08
2023-02-11T12:29:53.236Z,4.10
2023-02-11T12:32:32.062Z,4.61
2023-02-11T12:35:26.695Z,4.61
2023-02-11T12:38:05.247Z,4.54
2023-02-11T12:40:53.224Z,4.48
2023-02-11T12:43:24.472Z,4.54
2023-02-11T12:46:16.006Z,4.44
2023-02-11T12:49:00.591Z,4.47
2023-02-11T12:51:57.956Z,4.70
2023-02-11T12:54:31.859Z,4.54
2023-02-11T12:57:07.393Z,4.64
2023-02-11T12:59:56.430Z,4.50
2023-02-11T13:02:44.460Z,4.05
2023-02-11T13:05:28.292Z,4.27
2023-02-11T13:08:04.389Z,4.34
2023-02-11T13:10:37.314Z,4.32
2023-02-11T13:13:22.137Z,4.31
2023-02-11T13:15:54.845Z,4.11
2023-02-11T13:18:45.642Z,4.33
2023-02-11T13:21:15.164Z,4.32
2023-02-11T13:24:09.659Z,4.41
2023-02-11T13:26:47.437Z,4.62
2023-02-11T13:29:29.659Z,5.04
2023-02-11T13:32:09.635Z,5.14
2023-02-11T13:34:42.166Z,5.40
2023-02-11T13:37:23.211Z,5.16
2023-02-11T13:39:58.421Z,5.15
2023-02-11T13:42:25.070Z,5.17
2023-02-11T13:44:52.055Z,5.56
2023-02-11T13:47:31.650Z,5.37
2023-02-11T13:50:00.255Z,5.39
2023-02-11T13:52:31.627Z,5.38
2023-02-11T13:55:06.358Z,5.29
2023-02-11T13:57:34.900Z,5.12
2023-02-11T14:00:26.838Z,5.24
2023-02-11T14:03:30.356Z,5.45
2023-02-11T14:06:27.933Z,5.52
2023-02-11T14:09:14.134Z,5.29
2023-02-11T14:11:42.689Z,5.32
2023-02-11T14:14:33.490Z,5.32
2023-02-11T14:17:03.220Z,5.53
2023-02-11T14:19:39.170Z,5.50
2023-02-11T14:22:13.333Z,5.21
2023-02-11T14:24:48.016Z,5.42
2023-02-11T14:27:27.119Z,5.56
2023-02-11T14:30:21.006Z,5.39
2023-02-11T14:33:00.330Z,5.15
2023-02-11T14:35:42.096Z,5.08
2023-02-11T14:38:31.682Z,5.19
2023-02-11T14:41:18.264Z,5.01
2023-02-11T14:43:58.734Z,4.90
2023-02-11T14:46:28.676Z,4.79
2023-02-11T14:48:59.794Z,5.06
2023-02-11T14:51:40.783Z,5.11
2023-02-11T14:54:22.713Z,5.00
2023-02-11T14:57:05.820Z,4.82
2023-02-11T14:59:32.773Z,4.70
2023-02-11T15:01:59.941Z,4.81
2023-02-11T15:04:33.265Z,4.76
2023-02-11T15:07:06.240Z,4.61
2023-02-11T15:09:46.209Z,4.60
2023-02-11T15:12:23.748Z,4.58
2023-02-11T15:14:54.097Z,4.60
2023-02-11T15:17:28.039Z,4.65
2023-02-11T15:19:57.884Z,4.90
2023-02-11T15:22:27.730Z,4.81
2023-02-11T15:25:17.067Z,4.73
2023-02-11T15:27:49.202Z,4.48
2023-02-11T15:30:21.734Z,4.59
2023-02-11T15:32:50.356Z,4.51
2023-02-11T15:35:18.341Z,4.35
2023-02-11T15:37:45.474Z,4.32
2023-02-11T15:40:19.050Z,4.28
2023-02-11T15:43:06.351Z,4.12
2023-02-11T15:45:38.498Z,4.17
2023-02-11T15:48:24.199Z,4.03
2023-02-11T15:50:58.645Z,4.00
2023-02-11T15:53:30.502Z,3.91
2023-02-11T15:56:07.827Z,3.57
2023-02-11T15:58:43.644Z,3.74
2023-02-11T16:01:10.949Z,3.79
2023-02-11T16:03:37.477Z,3.78
2023-02-11T16:06:17.308Z,3.82
2023-02-11T16:08:56.355Z,3.86
2023-02-11T16:11:31.017Z,3.89
2023-02-11T16:14:01.292Z,3.88
2023-02-11T16:16:33.960Z,3.64
2023-02-11T16:19:06.419Z,3.59
2023-02-11T16:21:38.966Z,3.55
2023-02-11T16:24:07.391Z,3.53
2023-02-11T16:26:39.140Z,3.59
2023-02-11T16:29:10.234Z,3.54
2023-02-11T16:31:41.110Z,3.49
2023-02-11T16:34:22.305Z,3.33
2023-02-11T16:36:50.036Z,3.33
2023-02-11T16:39:17.841Z,3.32
2023-02-11T16:41:44.394Z,3.22
2023-02-11T16:44:11.020Z,3.07
2023-02-11T16:46:37.851Z,3.09
2023-02-11T16:49:10.349Z,2.94
2023-02-11T16:51:41.609Z,3.08
2023-02-11T16:54:14.788Z,3.01
2023-02-11T16:56:41.566Z,2.82
2023-02-11T16:59:08.132Z,2.89
2023-02-11T17:01:35.753Z,2.90
2023-02-11T17:04:02.297Z,2.77
2023-02-11T17:06:28.753Z,2.75
2023-02-11T17:08:55.188Z,2.51
2023-02-11T17:11:21.592Z,2.56
2023-02-11T17:13:48.092Z,2.41
2023-02-11T17:16:23.391Z,2.65
2023-02-11T17:18:49.887Z,2.57
2023-02-11T17:21:16.800Z,2.56
2023-02-11T17:23:43.456Z,2.43
2023-02-11T17:26:09.844Z,2.34
2023-02-11T17:28:36.372Z,2.33
2023-02-11T17:31:07.320Z,2.44
2023-02-11T17:33:36.138Z,2.45
2023-02-11T17:36:09.880Z,2.49
2023-02-11T17:38:37.221Z,2.42
2023-02-11T17:41:04.855Z,2.49
2023-02-11T17:43:31.601Z,2.40
2023-02-11T17:45:58.120Z,2.49
2023-02-11T17:48:25.031Z,2.56
2023-02-11T17:50:51.558Z,2.41
2023-02-11T17:53:17.974Z,2.41
2023-02-11T17:55:44.480Z,2.30
2023-02-11T17:58:11.024Z,2.37
2023-02-11T18:00:37.474Z,2.37
2023-02-11T18:03:04.387Z,2.31
2023-02-11T18:05:35.784Z,2.33
2023-02-11T18:08:04.285Z,2.34
2023-02-11T18:10:31.688Z,2.28
2023-02-11T18:12:58.122Z,2.13
2023-02-11T18:15:24.610Z,2.10
2023-02-11T18:17:51.202Z,2.10
2023-02-11T18:20:17.871Z,2.07
2023-02-11T18:22:44.647Z,2.09
2023-02-11T18:25:14.968Z,2.02
2023-02-11T18:27:41.512Z,1.90
2023-02-11T18:30:13.997Z,1.82
2023-02-11T18:32:40.488Z,1.77
2023-02-11T18:35:14.780Z,1.76
2023-02-11T18:37:42.395Z,1.87
2023-02-11T18:40:10.433Z,1.75
2023-02-11T18:42:36.989Z,1.72
2023-02-11T18:45:05.158Z,1.59
2023-02-11T18:47:31.545Z,1.65
2023-02-11T18:49:57.964Z,1.75
2023-02-11T18:52:24.387Z,1.75
2023-02-11T18:54:52.241Z,1.83
2023-02-11T18:57:18.640Z,1.71
2023-02-11T18:59:45.309Z,1.62
2023-02-11T19:02:11.995Z,1.60
2023-02-11T19:04:38.516Z,1.68
2023-02-11T19:07:05.071Z,1.71
2023-02-11T19:09:31.696Z,1.70
2023-02-11T19:11:59.794Z,1.72
2023-02-11T19:14:31.623Z,1.85
2023-02-11T19:17:00.286Z,1.71
2023-02-11T19:19:31.576Z,1.89
2023-02-11T19:21:59.773Z,1.71
2023-02-11T19:24:28.072Z,1.77
2023-02-11T19:26:58.411Z,1.75
2023-02-11T19:29:25.428Z,1.88
2023-02-11T19:31:53.556Z,1.85
2023-02-11T19:34:21.265Z,1.93
2023-02-11T19:36:49.321Z,1.93
2023-02-11T19:39:16.385Z,1.86
2023-02-11T19:41:42.940Z,1.88
2023-02-11T19:44:09.501Z,1.92
2023-02-11T19:46:38.027Z,1.97
2023-02-11T19:49:05.067Z,1.88
2023-02-11T19:51:33.523Z,1.88
2023-02-11T19:54:00.664Z,1.95
2023-02-11T19:56:31.023Z,1.93
2023-02-11T19:58:57.539Z,1.76
2023-02-11T20:01:25.664Z,1.81
2023-02-11T20:03:53.846Z,1.96
2023-02-11T20:06:23.865Z,1.93
2023-02-11T20:08:58.235Z,1.83
2023-02-11T20:11:26.832Z,1.93
2023-02-11T20:13:53.533Z,1.93
2023-02-11T20:16:23.116Z,1.98
2023-02-11T20:18:50.865Z,1.87
2023-02-11T20:21:20.233Z,1.86
2023-02-11T20:23:47.578Z,1.89
2023-02-11T20:26:16.764Z,1.99
2023-02-11T20:28:43.400Z,2.05
2023-02-11T20:31:11.080Z,1.90
2023-02-11T20:33:38.733Z,2.12
2023-02-11T20:36:08.440Z,2.14
2023-02-11T20:38:35.758Z,1.96
2023-02-11T20:41:10.357Z,2.04
2023-02-11T20:43:38.107Z,2.12
2023-02-11T20:46:06.051Z,2.03
2023-02-11T20:48:33.204Z,2.00
2023-02-11T20:51:09.112Z,2.17
2023-02-11T20:53:40.419Z,2.08
2023-02-11T20:56:09.722Z,2.07
2023-02-11T20:58:36.495Z,2.14
2023-02-11T21:01:14.124Z,2.15
2023-02-11T21:03:43.696Z,1.87
2023-02-11T21:06:11.334Z,2.07
2023-02-11T21:08:37.860Z,2.03
2023-02-11T21:11:08.430Z,1.98
2023-02-11T21:13:36.213Z,2.12
2023-02-11T21:16:03.116Z,2.13
2023-02-11T21:18:29.637Z,2.03
2023-02-11T21:20:56.784Z,2.13
2023-02-11T21:23:23.799Z,1.96
2023-02-11T21:25:51.013Z,2.17
2023-02-11T21:28:17.489Z,2.17
2023-02-11T21:30:44.304Z,2.11
2023-02-11T21:33:10.768Z,2.13
2023-02-11T21:35:38.018Z,2.18
2023-02-11T21:38:04.795Z,2.19
2023-02-11T21:40:31.293Z,2.07
2023-02-11T21:42:58.275Z,2.14
2023-02-11T21:45:25.335Z,2.17
2023-02-11T21:47:52.338Z,2.13
2023-02-11T21:50:19.081Z,2.23
2023-02-11T21:52:46.043Z,2.28
2023-02-11T21:55:12.741Z,2.12
2023-02-11T21:57:39.249Z,2.24
2023-02-11T22:00:07.627Z,2.38
2023-02-11T22:02:37.121Z,2.24
2023-02-11T22:05:03.800Z,2.20
2023-02-11T22:07:30.332Z,2.28
2023-02-11T22:09:56.789Z,2.18
2023-02-11T22:12:23.237Z,2.25
2023-02-11T22:14:49.743Z,2.27
2023-02-11T22:17:16.261Z,2.16
2023-02-11T22:19:42.783Z,2.24
2023-02-11T22:22:09.399Z,2.19
2023-02-11T22:24:36.072Z,2.39
2023-02-11T22:27:02.989Z,2.33
2023-02-11T22:29:29.424Z,2.33
2023-02-11T22:31:55.856Z,2.26
2023-02-11T22:34:22.326Z,2.29
2023-02-11T22:36:48.762Z,2.32
2023-02-11T22:39:16.613Z,2.35
2023-02-11T22:41:44.609Z,2.33
2023-02-11T22:44:11.604Z,2.43
2023-02-11T22:46:38.992Z,2.45
2023-02-11T22:49:05.866Z,2.36
2023-02-11T22:51:32.371Z,2.41
2023-02-11T22:54:04.260Z,2.43
2023-02-11T22:56:32.723Z,2.35
2023-02-11T22:59:01.764Z,2.43
2023-02-11T23:01:29.725Z,2.34
2023-02-11T23:03:56.926Z,2.37
2023-02-11T23:06:23.344Z,2.42
2023-02-11T23:08:51.482Z,2.43
2023-02-11T23:11:20.633Z,2.32
2023-02-11T23:13:48.356Z,2.43
2023-02-11T23:16:18.261Z,2.41
2023-02-11T23:18:46.177Z,2.42
2023-02-11T23:21:18.892Z,2.39
2023-02-11T23:23:45.687Z,2.18
2023-02-11T23:26:15.237Z,2.29
2023-02-11T23:28:42.148Z,2.25
2023-02-11T23:31:22.237Z,2.27
2023-02-11T23:33:49.115Z,2.17
2023-02-11T23:36:16.560Z,2.24
2023-02-11T23:38:43.371Z,2.39
2023-02-11T23:41:10.201Z,2.22
2023-02-11T23:43:36.962Z,2.23
2023-02-11T23:46:04.141Z,2.11
2023-02-11T23:48:30.631Z,2.25
2023-02-11T23:50:57.112Z,2.24
2023-02-11T23:53:38.237Z,2.23
2023-02-11T23:56:10.055Z,2.18
2023-02-11T23:58:36.642Z,2.10
